createdAt,value
2023-04-04T00:02:50.522Z,21.4
2023-04-04T00:04:33.816Z,21.4
2023-04-04T00:06:17.289Z,21.4
2023-04-04T00:08:00.685Z,21.4
2023-04-04T00:09:44.074Z,21.4
2023-04-04T00:11:27.392Z,21.4
2023-04-04T00:13:10.868Z,21.4
2023-04-04T00:14:54.278Z,21.4
2023-04-04T00:18:20.757Z,21.4
2023-04-04T00:20:03.989Z,21.3
2023-04-04T00:21:47.554Z,21.3
2023-04-04T00:23:30.959Z,21.3
2023-04-04T00:25:14.331Z,21.3
2023-04-04T00:28:41.126Z,21.3
2023-04-04T00:30:24.351Z,21.3
2023-04-04T00:33:51.018Z,21.3
2023-04-04T00:35:34.272Z,21.3
2023-04-04T00:37:17.631Z,21.3
2023-04-04T00:39:01.022Z,21.3
2023-04-04T00:40:44.582Z,21.3
2023-04-04T00:42:28.019Z,21.3
2023-04-04T00:44:11.220Z,21.3
2023-04-04T00:45:54.742Z,21.3
2023-04-04T00:49:21.220Z,21.3
2023-04-04T00:51:04.625Z,21.3
2023-04-04T00:52:47.914Z,21.3
2023-04-04T00:54:31.434Z,21.3
2023-04-04T00:56:14.829Z,21.3
2023-04-04T00:57:58.176Z,21.3
2023-04-04T00:59:41.658Z,21.3
2023-04-04T01:01:24.896Z,21.3
2023-04-04T01:06:34.242Z,21.3
2023-04-04T01:08:17.589Z,21.3
2023-04-04T01:10:01.051Z,21.3
2023-04-04T01:11:44.471Z,21.3
2023-04-04T01:13:27.828Z,21.3
2023-04-04T01:15:11.251Z,21.3
2023-04-04T01:16:54.481Z,21.3
2023-04-04T01:18:38.022Z,21.3
2023-04-04T01:22:04.336Z,21.3
2023-04-04T01:23:47.730Z,21.3
2023-04-04T01:25:31.133Z,21.3
2023-04-04T01:27:14.643Z,21.3
2023-04-04T01:28:57.938Z,21.3
2023-04-04T01:30:41.344Z,21.3
2023-04-04T01:32:24.887Z,21.3
2023-04-04T01:34:08.254Z,21.3
2023-04-04T01:39:17.480Z,21.3
2023-04-04T01:41:00.746Z,21.3
2023-04-04T01:42:44.161Z,21.3
2023-04-04T01:44:27.697Z,21.3
2023-04-04T01:46:10.979Z,21.3
2023-04-04T01:47:54.542Z,21.3
2023-04-04T01:49:37.889Z,21.3
2023-04-04T01:51:21.379Z,21.3
2023-04-04T01:56:30.551Z,21.3
2023-04-04T01:58:13.957Z,21.3
2023-04-04T01:59:57.314Z,21.2
2023-04-04T02:01:40.759Z,21.3
2023-04-04T02:03:24.181Z,21.2
2023-04-04T02:05:07.536Z,21.2
2023-04-04T02:06:50.887Z,21.2
2023-04-04T02:08:34.309Z,21.3
2023-04-04T02:10:17.849Z,21.2
2023-04-04T02:12:01.245Z,21.2
2023-04-04T02:13:44.855Z,21.2
2023-04-04T02:15:28.151Z,21.2
2023-04-04T02:17:11.440Z,21.2
2023-04-04T02:18:55.024Z,21.2
2023-04-04T02:20:38.232Z,21.2
2023-04-04T02:22:21.795Z,21.2
2023-04-04T02:27:30.872Z,21.2
2023-04-04T02:29:14.269Z,21.2
2023-04-04T02:30:57.781Z,21.2
2023-04-04T02:32:41.279Z,21.2
2023-04-04T02:34:24.568Z,21.2
2023-04-04T02:36:07.855Z,21.2
2023-04-04T02:37:51.714Z,21.2
2023-04-04T02:43:00.693Z,21.2
2023-04-04T02:44:44.101Z,21.2
2023-04-04T02:46:27.447Z,21.2
2023-04-04T02:48:10.760Z,21.2
2023-04-04T02:49:54.144Z,21.2
2023-04-04T02:51:37.636Z,21.2
2023-04-04T02:53:21.039Z,21.2
2023-04-04T02:55:04.448Z,21.2
2023-04-04T02:56:48.219Z,21.2
2023-04-04T02:58:31.599Z,21.2
2023-04-04T03:00:14.939Z,21.2
2023-04-04T03:01:58.501Z,21.2
2023-04-04T03:03:41.593Z,21.2
2023-04-04T03:05:25.151Z,21.2
2023-04-04T03:07:08.511Z,21.2
2023-04-04T03:08:51.986Z,21.2
2023-04-04T03:12:18.384Z,21.2
2023-04-04T03:14:01.816Z,21.2
2023-04-04T03:15:45.255Z,21.2
2023-04-04T03:17:28.428Z,21.2
2023-04-04T03:19:12.014Z,21.2
2023-04-04T03:20:55.509Z,21.2
2023-04-04T03:22:38.622Z,21.2
2023-04-04T03:24:22.148Z,21.2
2023-04-04T03:26:05.900Z,21.2
2023-04-04T03:27:49.152Z,21.2
2023-04-04T03:29:33.824Z,21.2
2023-04-04T03:31:15.899Z,21.2
2023-04-04T03:33:08.663Z,21.2
2023-04-04T03:36:26.278Z,21.2
2023-04-04T03:38:09.535Z,21.2
2023-04-04T03:41:35.950Z,21.2
2023-04-04T03:43:19.478Z,21.2
2023-04-04T03:45:02.740Z,21.2
2023-04-04T03:46:46.313Z,21.2
2023-04-04T03:48:29.532Z,21.2
2023-04-04T03:50:13.113Z,21.2
2023-04-04T03:51:56.455Z,21.2
2023-04-04T03:53:39.913Z,21.2
2023-04-04T03:57:06.201Z,21.2
2023-04-04T03:58:49.713Z,21.2
2023-04-04T04:00:32.998Z,21.2
2023-04-04T04:02:16.473Z,21.1
2023-04-04T04:03:59.890Z,21.2
2023-04-04T04:05:43.244Z,21.2
2023-04-04T04:07:26.676Z,21.2
2023-04-04T04:09:10.131Z,21.2
2023-04-04T04:10:53.699Z,21.1
2023-04-04T04:12:37.196Z,21.2
2023-04-04T04:14:20.611Z,21.1
2023-04-04T04:16:04.078Z,21.1
2023-04-04T04:17:47.387Z,21.1
2023-04-04T04:19:30.740Z,21.2
2023-04-04T04:21:14.202Z,21.1
2023-04-04T04:22:57.632Z,21.1
2023-04-04T04:24:41.288Z,21.1
2023-04-04T04:26:24.699Z,21.1
2023-04-04T04:28:07.930Z,21.1
2023-04-04T04:29:51.515Z,21.1
2023-04-04T04:31:34.747Z,21.1
2023-04-04T04:33:18.279Z,21.1
2023-04-04T04:35:01.648Z,21.1
2023-04-04T04:36:45.059Z,21.1
2023-04-04T04:38:28.792Z,21.1
2023-04-04T04:40:12.123Z,21.1
2023-04-04T04:41:55.412Z,21.1
2023-04-04T04:43:38.811Z,21.1
2023-04-04T04:45:22.204Z,21.1
2023-04-04T04:47:05.676Z,21.1
2023-04-04T04:48:48.993Z,21.1
2023-04-04T04:50:32.530Z,21.1
2023-04-04T04:53:59.050Z,21.1
2023-04-04T04:55:42.249Z,21.1
2023-04-04T04:57:25.649Z,21.1
2023-04-04T04:59:09.119Z,21.1
2023-04-04T05:00:52.454Z,21.1
2023-04-04T05:02:35.846Z,21.1
2023-04-04T05:04:19.387Z,21.1
2023-04-04T05:06:02.636Z,21.1
2023-04-04T05:09:29.304Z,21.1
2023-04-04T05:11:12.651Z,21.1
2023-04-04T05:12:56.117Z,21.1
2023-04-04T05:14:39.441Z,21.1
2023-04-04T05:16:22.690Z,21.1
2023-04-04T05:18:06.329Z,21.1
2023-04-04T05:19:49.614Z,21.1
2023-04-04T05:21:33.009Z,21.1
2023-04-04T05:24:59.451Z,21.1
2023-04-04T05:26:42.745Z,21.1
2023-04-04T05:28:26.321Z,21.1
2023-04-04T05:30:09.713Z,21.1
2023-04-04T05:31:53.054Z,21.1
2023-04-04T05:33:36.369Z,21.1
2023-04-04T05:35:19.900Z,21.1
2023-04-04T05:37:03.232Z,21.1
2023-04-04T05:42:12.493Z,21.1
2023-04-04T05:43:55.949Z,21.1
2023-04-04T05:45:39.309Z,21.1
2023-04-04T05:47:22.704Z,21.1
2023-04-04T05:49:06.203Z,21.1
2023-04-04T05:50:49.412Z,21.1
2023-04-04T05:52:32.877Z,21.1
2023-04-04T05:54:16.139Z,21.1
2023-04-04T05:57:42.750Z,21.1
2023-04-04T05:59:26.193Z,21.1
2023-04-04T06:01:09.561Z,21.1
2023-04-04T06:02:53.013Z,21.1
2023-04-04T06:04:36.223Z,21.1
2023-04-04T06:06:19.776Z,21.1
2023-04-04T06:08:03.158Z,21.1
2023-04-04T06:09:46.560Z,21.1
2023-04-04T06:11:30.274Z,21.1
2023-04-04T06:13:13.695Z,21.1
2023-04-04T06:14:57.090Z,21.1
2023-04-04T06:16:40.393Z,21.1
2023-04-04T06:18:23.810Z,21.1
2023-04-04T06:20:07.199Z,21.1
2023-04-04T06:21:50.638Z,21.1
2023-04-04T06:23:34.060Z,21.1
2023-04-04T06:27:00.733Z,21.1
2023-04-04T06:28:43.919Z,21.1
2023-04-04T06:30:27.364Z,21.1
2023-04-04T06:32:10.526Z,21.1
2023-04-04T06:33:53.995Z,21.1
2023-04-04T06:35:37.327Z,21.1
2023-04-04T06:37:20.727Z,21.1
2023-04-04T06:39:04.108Z,21.1
2023-04-04T06:44:13.386Z,21.1
2023-04-04T06:45:56.747Z,21.1
2023-04-04T06:47:40.162Z,21.1
2023-04-04T06:49:23.538Z,21.1
2023-04-04T06:51:06.984Z,21.1
2023-04-04T06:52:50.340Z,21.1
2023-04-04T06:54:33.730Z,21.1
2023-04-04T06:56:17.135Z,21.1
2023-04-04T06:59:43.615Z,21.2
2023-04-04T07:01:27.068Z,21.2
2023-04-04T07:03:10.416Z,21.2
2023-04-04T07:04:53.833Z,21.2
2023-04-04T07:06:37.191Z,21.2
2023-04-04T07:08:20.678Z,21.2
2023-04-04T07:10:04.033Z,21.2
2023-04-04T07:11:47.551Z,21.2
2023-04-04T07:15:13.886Z,21.3
2023-04-04T07:16:57.234Z,21.3
2023-04-04T07:18:40.637Z,21.3
2023-04-04T07:20:24.095Z,21.3
2023-04-04T07:22:07.499Z,21.1
2023-04-04T07:23:50.980Z,20.5
2023-04-04T07:25:34.218Z,20.2
2023-04-04T07:27:17.621Z,20.1
2023-04-04T07:30:44.274Z,20.2
2023-04-04T07:32:27.618Z,20.3
2023-04-04T07:34:10.888Z,20.3
2023-04-04T07:35:54.315Z,20.4
2023-04-04T07:37:37.679Z,20.5
2023-04-04T07:39:21.077Z,20.6
2023-04-04T07:41:04.456Z,20.6
2023-04-04T07:42:47.857Z,20.7
2023-04-04T07:44:31.259Z,20.8
2023-04-04T07:46:14.963Z,20.8
2023-04-04T07:47:58.431Z,20.9
2023-04-04T07:49:41.757Z,21
2023-04-04T07:51:25.215Z,21
2023-04-04T07:53:08.553Z,21.1
2023-04-04T07:54:51.957Z,21.1
2023-04-04T07:56:35.325Z,21.1
2023-04-04T07:58:18.807Z,21.2
2023-04-04T08:03:27.973Z,21.3
2023-04-04T08:05:11.406Z,21.3
2023-04-04T08:06:54.773Z,21.4
2023-04-04T08:08:38.153Z,21.4
2023-04-04T08:10:21.648Z,21.4
2023-04-04T08:12:04.969Z,21.4
2023-04-04T08:13:48.354Z,21.4
2023-04-04T08:15:31.887Z,21.4
2023-04-04T08:18:58.267Z,21.5
2023-04-04T08:20:41.764Z,21.5
2023-04-04T08:22:25.119Z,21.5
2023-04-04T08:24:08.409Z,21.5
2023-04-04T08:25:51.797Z,21.5
2023-04-04T08:27:35.210Z,21.5
2023-04-04T08:29:18.581Z,21.5
2023-04-04T08:31:02.080Z,21.5
2023-04-04T08:34:28.462Z,21.5
2023-04-04T08:36:11.848Z,21.5
2023-04-04T08:37:55.433Z,21.5
2023-04-04T08:39:38.750Z,21.5
2023-04-04T08:41:22.071Z,21.5
2023-04-04T08:43:05.570Z,21.5
2023-04-04T08:44:48.879Z,21.5
2023-04-04T08:46:32.228Z,21.5
2023-04-04T08:49:58.697Z,21.6
2023-04-04T08:51:42.143Z,21.6
2023-04-04T08:53:25.528Z,21.6
2023-04-04T08:55:08.894Z,21.6
2023-04-04T08:56:52.312Z,21.6
2023-04-04T08:58:35.699Z,21.6
2023-04-04T09:00:19.113Z,21.6
2023-04-04T09:02:02.479Z,21.6
2023-04-04T09:05:28.961Z,21.6
2023-04-04T09:07:12.400Z,21.6
2023-04-04T09:08:55.850Z,21.6
2023-04-04T09:10:39.168Z,21.6
2023-04-04T09:12:22.534Z,21.6
2023-04-04T09:14:06.036Z,21.6
2023-04-04T09:15:49.474Z,21.7
2023-04-04T09:17:32.800Z,21.7
2023-04-04T09:20:59.250Z,21.7
2023-04-04T09:22:42.644Z,21.7
2023-04-04T09:24:26.084Z,21.8
2023-04-04T09:26:09.449Z,21.8
2023-04-04T09:27:52.831Z,21.8
2023-04-04T09:29:36.206Z,21.8
2023-04-04T09:31:19.684Z,21.8
2023-04-04T09:33:03.002Z,21.8
2023-04-04T09:36:29.456Z,21.8
2023-04-04T09:38:12.845Z,21.8
2023-04-04T09:39:56.447Z,21.8
2023-04-04T09:41:39.731Z,21.8
2023-04-04T09:43:23.057Z,21.8
2023-04-04T09:45:06.452Z,21.8
2023-04-04T09:46:49.850Z,21.8
2023-04-04T09:48:33.269Z,21.8
2023-04-04T09:51:59.797Z,21.9
2023-04-04T09:53:43.255Z,21.9
2023-04-04T09:55:26.637Z,21.9
2023-04-04T09:57:09.960Z,21.9
2023-04-04T09:58:53.377Z,21.9
2023-04-04T10:00:36.875Z,21.9
2023-04-04T10:02:20.075Z,21.9
2023-04-04T10:04:03.549Z,21.9
2023-04-04T10:07:29.953Z,21.9
2023-04-04T10:09:13.346Z,21.9
2023-04-04T10:10:56.801Z,21.9
2023-04-04T10:12:40.270Z,22
2023-04-04T10:14:23.702Z,22
2023-04-04T10:16:07.019Z,22
2023-04-04T10:17:50.363Z,22
2023-04-04T10:19:33.754Z,22
2023-04-04T10:23:00.288Z,22
2023-04-04T10:24:43.628Z,22
2023-04-04T10:26:27.113Z,22
2023-04-04T10:28:10.386Z,22
2023-04-04T10:29:53.805Z,22
2023-04-04T10:31:37.210Z,22
2023-04-04T10:33:20.601Z,22
2023-04-04T10:35:03.970Z,22.1
2023-04-04T10:38:30.444Z,22.1
2023-04-04T10:40:13.840Z,22.1
2023-04-04T10:41:57.238Z,22.1
2023-04-04T10:43:40.677Z,22.1
2023-04-04T10:45:24.124Z,22.1
2023-04-04T10:47:07.438Z,22.1
2023-04-04T10:48:50.822Z,22.1
2023-04-04T10:50:34.247Z,22.1
2023-04-04T10:54:00.702Z,22.1
2023-04-04T10:55:44.086Z,22.1
2023-04-04T10:57:27.558Z,22.1
2023-04-04T10:59:10.933Z,22.1
2023-04-04T11:00:54.318Z,22.1
2023-04-04T11:02:37.706Z,22.1
2023-04-04T11:04:21.068Z,22.1
2023-04-04T11:06:04.510Z,22.1
2023-04-04T11:07:48.178Z,22.1
2023-04-04T11:09:31.588Z,22.1
2023-04-04T11:11:14.988Z,22.1
2023-04-04T11:12:58.360Z,22.1
2023-04-04T11:14:41.762Z,22.1
2023-04-04T11:16:25.143Z,22.1
2023-04-04T11:18:08.541Z,22.1
2023-04-04T11:19:51.952Z,22.1
2023-04-04T11:23:18.422Z,22.2
2023-04-04T11:25:01.822Z,22.2
2023-04-04T11:26:45.228Z,22.2
2023-04-04T11:28:28.604Z,22.2
2023-04-04T11:30:12.032Z,22.2
2023-04-04T11:31:55.398Z,22.2
2023-04-04T11:33:38.811Z,22.2
2023-04-04T11:35:22.193Z,22.2
2023-04-04T11:38:48.683Z,22.2
2023-04-04T11:40:32.057Z,22.2
2023-04-04T11:42:15.444Z,22.2
2023-04-04T11:43:58.842Z,22.2
2023-04-04T11:45:42.237Z,22.2
2023-04-04T11:47:25.644Z,22.2
2023-04-04T11:49:09.039Z,22.2
2023-04-04T11:54:18.271Z,22.1
2023-04-04T11:56:01.666Z,22.1
2023-04-04T11:57:45.075Z,22.1
2023-04-04T11:59:28.459Z,22.1
2023-04-04T12:01:11.858Z,22.1
2023-04-04T12:02:55.263Z,22.2
2023-04-04T12:04:38.648Z,22.2
2023-04-04T12:06:22.179Z,22.2
2023-04-04T12:08:05.758Z,22.2
2023-04-04T12:09:49.271Z,22.2
2023-04-04T12:11:32.565Z,22.2
2023-04-04T12:13:16.027Z,22.2
2023-04-04T12:14:59.528Z,22.2
2023-04-04T12:16:42.868Z,22.2
2023-04-04T12:18:26.179Z,22.2
2023-04-04T12:20:09.651Z,22.2
2023-04-04T12:23:36.144Z,22.2
2023-04-04T12:25:19.423Z,22.2
2023-04-04T12:27:02.798Z,22.3
2023-04-04T12:28:46.346Z,22.3
2023-04-04T12:30:29.785Z,22.3
2023-04-04T12:32:13.272Z,22.3
2023-04-04T12:33:56.474Z,22.3
2023-04-04T12:35:39.845Z,22.3
2023-04-04T12:40:49.049Z,22.3
2023-04-04T12:42:32.618Z,22.3
2023-04-04T12:44:15.966Z,22.3
2023-04-04T12:45:59.393Z,22.3
2023-04-04T12:47:42.602Z,22.2
2023-04-04T12:49:26.193Z,22.2
2023-04-04T12:51:09.384Z,22.2
2023-04-04T12:52:52.794Z,22.2
2023-04-04T12:56:19.470Z,22.2
2023-04-04T12:58:02.664Z,22.2
2023-04-04T12:59:46.164Z,22.2
2023-04-04T13:01:29.439Z,22.2
2023-04-04T13:03:12.949Z,22.1
2023-04-04T13:04:56.349Z,22.1
2023-04-04T13:06:39.858Z,22.1
2023-04-04T13:08:23.198Z,22
2023-04-04T13:13:32.281Z,22
2023-04-04T13:15:15.876Z,22
2023-04-04T13:16:59.249Z,22
2023-04-04T13:18:42.651Z,22
2023-04-04T13:20:26.009Z,22
2023-04-04T13:22:09.427Z,22
2023-04-04T13:23:52.799Z,22
2023-04-04T13:25:36.060Z,22
2023-04-04T13:30:45.398Z,22
2023-04-04T13:32:28.840Z,21.9
2023-04-04T13:34:12.264Z,21.9
2023-04-04T13:35:55.720Z,21.9
2023-04-04T13:37:39.016Z,21.9
2023-04-04T13:39:22.459Z,21.9
2023-04-04T13:41:05.728Z,21.9
2023-04-04T13:42:49.128Z,21.9
2023-04-04T13:47:58.502Z,21.9
2023-04-04T13:49:41.757Z,21.9
2023-04-04T13:51:25.300Z,21.9
2023-04-04T13:53:08.622Z,21.9
2023-04-04T13:54:52.101Z,21.9
2023-04-04T13:56:35.447Z,21.9
2023-04-04T13:58:18.869Z,21.9
2023-04-04T14:00:02.328Z,21.9
2023-04-04T14:05:11.342Z,21.9
2023-04-04T14:06:54.887Z,21.9
2023-04-04T14:08:38.312Z,21.9
2023-04-04T14:10:21.633Z,21.9
2023-04-04T14:12:04.983Z,21.9
2023-04-04T14:13:48.439Z,21.9
2023-04-04T14:15:31.696Z,21.9
2023-04-04T14:17:15.318Z,21.9
2023-04-04T14:18:58.646Z,21.9
2023-04-04T14:22:25.139Z,21.9
2023-04-04T14:24:08.563Z,21.9
2023-04-04T14:25:51.805Z,21.9
2023-04-04T14:27:35.372Z,21.9
2023-04-04T14:29:18.712Z,21.9
2023-04-04T14:31:02.062Z,21.9
2023-04-04T14:32:45.510Z,21.9
2023-04-04T14:34:28.926Z,21.9
2023-04-04T14:39:38.171Z,21.9
2023-04-04T14:41:21.581Z,21.9
2023-04-04T14:43:04.953Z,21.9
2023-04-04T14:44:48.342Z,21.9
2023-04-04T14:46:31.726Z,21.9
2023-04-04T14:48:15.197Z,21.9
2023-04-04T14:49:58.571Z,21.8
2023-04-04T14:51:41.927Z,21.9
2023-04-04T14:56:51.186Z,21.8
2023-04-04T14:58:34.607Z,21.8
2023-04-04T15:00:17.794Z,21.8
2023-04-04T15:02:01.422Z,21.8
2023-04-04T15:03:44.706Z,21.8
2023-04-04T15:05:27.968Z,21.8
2023-04-04T15:07:11.569Z,21.8
2023-04-04T15:08:54.967Z,21.8
2023-04-04T15:10:38.170Z,21.8
2023-04-04T15:14:04.868Z,21.8
2023-04-04T15:15:48.211Z,21.8
2023-04-04T15:17:31.609Z,21.9
2023-04-04T15:19:15.013Z,21.9
2023-04-04T15:20:58.384Z,21.9
2023-04-04T15:22:41.811Z,22
2023-04-04T15:24:25.212Z,22
2023-04-04T15:26:08.590Z,22
2023-04-04T15:31:17.822Z,22.1
2023-04-04T15:33:01.058Z,22.1
2023-04-04T15:34:44.621Z,22.2
2023-04-04T15:36:28.035Z,22.2
2023-04-04T15:38:11.588Z,22.2
2023-04-04T15:39:54.798Z,22.2
2023-04-04T15:41:38.252Z,22.3
2023-04-04T15:43:21.441Z,22.3
2023-04-04T15:45:05.092Z,22.3
2023-04-04T15:46:48.548Z,22.2
2023-04-04T15:48:32.111Z,22.3
2023-04-04T15:50:15.327Z,22.3
2023-04-04T15:51:58.893Z,22.3
2023-04-04T15:53:42.103Z,22.3
2023-04-04T15:55:25.664Z,22.3
2023-04-04T15:57:08.942Z,22.3
2023-04-04T15:58:52.489Z,22.4
2023-04-04T16:04:01.737Z,22.4
2023-04-04T16:05:44.967Z,22.4
2023-04-04T16:07:28.522Z,22.4
2023-04-04T16:09:11.738Z,22.4
2023-04-04T16:10:55.300Z,22.4
2023-04-04T16:12:38.679Z,22.4
2023-04-04T16:14:22.288Z,22.4
2023-04-04T16:16:05.464Z,22.5
2023-04-04T16:19:31.945Z,22.5
2023-04-04T16:21:15.363Z,22.5
2023-04-04T16:22:58.764Z,22.5
2023-04-04T16:24:42.222Z,22.5
2023-04-04T16:26:25.577Z,22.5
2023-04-04T16:28:08.960Z,22.5
2023-04-04T16:29:52.364Z,22.5
2023-04-04T16:31:35.718Z,22.5
2023-04-04T16:35:02.223Z,22.5
2023-04-04T16:36:45.645Z,22.5
2023-04-04T16:38:29.116Z,22.5
2023-04-04T16:40:12.271Z,22.5
2023-04-04T16:41:55.812Z,22.5
2023-04-04T16:43:39.226Z,22.5
2023-04-04T16:45:22.603Z,22.6
2023-04-04T16:47:05.809Z,22.6
2023-04-04T16:50:32.322Z,22.5
2023-04-04T16:52:15.864Z,22.5
2023-04-04T16:53:59.362Z,22.5
2023-04-04T16:55:42.671Z,22.5
2023-04-04T16:57:26.035Z,22.5
2023-04-04T16:59:09.325Z,22.5
2023-04-04T17:00:52.831Z,22.5
2023-04-04T17:02:36.169Z,22.4
2023-04-04T17:04:19.991Z,22.4
2023-04-04T17:06:03.357Z,22.4
2023-04-04T17:07:46.688Z,22.3
2023-04-04T17:09:30.143Z,22.3
2023-04-04T17:11:13.520Z,22.3
2023-04-04T17:12:56.751Z,22.2
2023-04-04T17:14:40.358Z,22.2
2023-04-04T17:16:23.646Z,22.2
2023-04-04T17:19:50.173Z,22.1
2023-04-04T17:21:33.656Z,22.1
2023-04-04T17:23:16.994Z,22.1
2023-04-04T17:25:00.351Z,22.1
2023-04-04T17:26:43.785Z,22.1
2023-04-04T17:28:27.147Z,22
2023-04-04T17:30:10.592Z,22
2023-04-04T17:31:53.954Z,22
2023-04-04T17:37:03.211Z,22
2023-04-04T17:38:46.538Z,22
2023-04-04T17:40:29.919Z,21.9
2023-04-04T17:42:13.322Z,21.9
2023-04-04T17:43:56.764Z,21.9
2023-04-04T17:45:40.214Z,21.9
2023-04-04T17:47:23.565Z,21.9
2023-04-04T17:49:07.020Z,21.9
2023-04-04T17:52:33.498Z,21.9
2023-04-04T17:54:16.859Z,21.9
2023-04-04T17:56:00.103Z,21.8
2023-04-04T17:57:43.565Z,21.8
2023-04-04T17:59:27.094Z,21.8
2023-04-04T18:01:10.360Z,21.8
2023-04-04T18:02:53.920Z,21.8
2023-04-04T18:04:37.302Z,21.8
2023-04-04T18:08:03.520Z,21.8
2023-04-04T18:09:46.930Z,21.8
2023-04-04T18:11:30.417Z,21.8
2023-04-04T18:13:13.883Z,21.8
2023-04-04T18:14:57.312Z,21.7
2023-04-04T18:16:40.612Z,21.8
2023-04-04T18:18:23.925Z,21.8
2023-04-04T18:20:07.476Z,21.8
2023-04-04T18:23:33.942Z,21.8
2023-04-04T18:25:17.285Z,21.8
2023-04-04T18:27:00.705Z,21.8
2023-04-04T18:28:44.126Z,21.8
2023-04-04T18:30:27.553Z,21.8
2023-04-04T18:32:10.974Z,21.8
2023-04-04T18:33:54.330Z,21.8
2023-04-04T18:35:37.597Z,21.8
2023-04-04T18:40:46.966Z,21.8
2023-04-04T18:42:30.401Z,21.8
2023-04-04T18:44:13.752Z,21.8
2023-04-04T18:45:56.980Z,21.8
2023-04-04T18:47:40.554Z,21.8
2023-04-04T18:49:23.856Z,21.8
2023-04-04T18:51:07.251Z,21.8
2023-04-04T18:52:50.756Z,21.7
2023-04-04T18:56:17.253Z,21.8
2023-04-04T18:58:00.670Z,21.7
2023-04-04T18:59:44.030Z,21.8
2023-04-04T19:01:27.357Z,21.7
2023-04-04T19:04:54.035Z,21.7
2023-04-04T19:06:37.510Z,21.7
2023-04-04T19:08:20.838Z,21.7
2023-04-04T19:13:30.272Z,21.7
2023-04-04T19:15:13.988Z,21.7
2023-04-04T19:16:57.010Z,21.7
2023-04-04T19:18:40.472Z,21.7
2023-04-04T19:20:23.835Z,21.7
2023-04-04T19:22:07.042Z,21.7
2023-04-04T19:23:50.565Z,21.7
2023-04-04T19:25:33.897Z,21.7
2023-04-04T19:27:17.363Z,21.7
2023-04-04T19:29:00.950Z,21.7
2023-04-04T19:30:44.558Z,21.7
2023-04-04T19:32:27.751Z,21.7
2023-04-04T19:34:11.293Z,21.7
2023-04-04T19:35:54.551Z,21.7
2023-04-04T19:37:38.086Z,21.7
2023-04-04T19:39:21.521Z,21.7
2023-04-04T19:41:04.928Z,21.7
2023-04-04T19:46:14.120Z,21.7
2023-04-04T19:47:57.357Z,21.6
2023-04-04T19:49:40.876Z,21.6
2023-04-04T19:51:24.164Z,21.6
2023-04-04T19:53:07.718Z,21.6
2023-04-04T19:54:50.953Z,21.6
2023-04-04T19:56:34.520Z,21.6
2023-04-04T19:58:17.793Z,21.6
2023-04-04T20:01:44.376Z,21.6
2023-04-04T20:03:27.780Z,21.6
2023-04-04T20:05:11.214Z,21.6
2023-04-04T20:06:54.529Z,21.6
2023-04-04T20:08:37.952Z,21.6
2023-04-04T20:10:21.357Z,21.6
2023-04-04T20:12:04.809Z,21.6
2023-04-04T20:13:48.145Z,21.6
2023-04-04T20:17:14.610Z,21.6
2023-04-04T20:18:58.004Z,21.6
2023-04-04T20:20:41.256Z,21.6
2023-04-04T20:22:24.784Z,21.6
2023-04-04T20:24:08.235Z,21.6
2023-04-04T20:25:51.505Z,21.6
2023-04-04T20:27:34.978Z,21.6
2023-04-04T20:29:18.228Z,21.6
2023-04-04T20:31:01.706Z,21.6
2023-04-04T20:34:28.115Z,21.6
2023-04-04T20:36:11.653Z,21.6
2023-04-04T20:37:55.077Z,21.6
2023-04-04T20:39:38.302Z,21.6
2023-04-04T20:41:21.833Z,21.6
2023-04-04T20:43:05.145Z,21.6
2023-04-04T20:44:48.619Z,21.6
2023-04-04T20:46:31.881Z,21.6
2023-04-04T20:48:15.400Z,21.6
2023-04-04T20:51:41.969Z,21.6
2023-04-04T20:53:25.328Z,21.6
2023-04-04T20:55:08.548Z,21.6
2023-04-04T20:56:52.147Z,21.5
2023-04-04T20:58:35.407Z,21.5
2023-04-04T21:00:18.875Z,21.5
2023-04-04T21:02:02.212Z,21.5
2023-04-04T21:03:45.511Z,21.5
2023-04-04T21:08:54.926Z,21.5
2023-04-04T21:10:38.174Z,21.5
2023-04-04T21:12:21.660Z,21.5
2023-04-04T21:14:05.064Z,21.5
2023-04-04T21:15:48.539Z,21.5
2023-04-04T21:17:31.912Z,21.5
2023-04-04T21:19:15.290Z,21.5
2023-04-04T21:20:58.544Z,21.5
2023-04-04T21:26:07.954Z,21.5
2023-04-04T21:27:51.336Z,21.5
2023-04-04T21:29:34.635Z,21.5
2023-04-04T21:31:17.988Z,21.5
2023-04-04T21:33:01.425Z,21.5
2023-04-04T21:34:44.944Z,21.5
2023-04-04T21:36:28.237Z,21.5
2023-04-04T21:38:11.701Z,21.5
2023-04-04T21:39:54.957Z,21.5
2023-04-04T21:41:38.653Z,21.5
2023-04-04T21:43:22.061Z,21.5
2023-04-04T21:45:05.457Z,21.5
2023-04-04T21:46:48.921Z,21.5
2023-04-04T21:48:32.401Z,21.5
2023-04-04T21:50:15.647Z,21.5
2023-04-04T21:51:59.118Z,21.5
2023-04-04T21:53:42.436Z,21.5
2023-04-04T21:58:51.819Z,21.5
2023-04-04T22:00:35.208Z,21.5
2023-04-04T22:02:18.584Z,21.5
2023-04-04T22:04:02.012Z,21.5
2023-04-04T22:05:45.337Z,21.5
2023-04-04T22:07:28.816Z,21.5
2023-04-04T22:09:12.136Z,21.5
2023-04-04T22:10:55.516Z,21.4
2023-04-04T22:12:39.022Z,21.4
2023-04-04T22:14:22.581Z,21.4
2023-04-04T22:16:06.000Z,21.4
2023-04-04T22:17:49.528Z,21.4
2023-04-04T22:19:32.865Z,21.4
2023-04-04T22:22:59.717Z,21.4
2023-04-04T22:24:43.082Z,21.4
2023-04-04T22:26:26.513Z,21.4
2023-04-04T22:31:35.703Z,21.4
2023-04-04T22:33:19.136Z,21.4
2023-04-04T22:35:02.390Z,21.4
2023-04-04T22:36:45.898Z,21.4
2023-04-04T22:38:29.152Z,21.4
2023-04-04T22:40:12.646Z,21.4
2023-04-04T22:41:56.004Z,21.4
2023-04-04T22:43:39.499Z,21.4
2023-04-04T22:45:22.746Z,21.4
2023-04-04T22:47:06.500Z,21.4
2023-04-04T22:48:50.024Z,21.4
2023-04-04T22:50:33.390Z,21.4
2023-04-04T22:52:16.784Z,21.4
2023-04-04T22:54:00.088Z,21.4
2023-04-04T22:55:43.517Z,21.4
2023-04-04T22:57:26.962Z,21.4
2023-04-04T22:59:10.229Z,21.4
2023-04-04T23:00:53.615Z,21.4
2023-04-04T23:04:20.292Z,21.4
2023-04-04T23:06:03.788Z,21.4
2023-04-04T23:07:47.128Z,21.4
2023-04-04T23:09:30.463Z,21.4
2023-04-04T23:11:13.719Z,21.4
2023-04-04T23:12:57.234Z,21.4
2023-04-04T23:14:40.658Z,21.4
2023-04-04T23:16:24.092Z,21.4
2023-04-04T23:18:07.305Z,21.4
2023-04-04T23:21:33.962Z,21.4
2023-04-04T23:23:17.313Z,21.4
2023-04-04T23:25:00.708Z,21.4
2023-04-04T23:26:44.109Z,21.4
2023-04-04T23:28:27.328Z,21.4
2023-04-04T23:30:10.776Z,21.4
2023-04-04T23:31:54.317Z,21.4
2023-04-04T23:33:37.674Z,21.4
2023-04-04T23:35:21.033Z,21.3
2023-04-04T23:38:47.381Z,21.4
2023-04-04T23:40:30.919Z,21.3
2023-04-04T23:42:14.203Z,21.3
2023-04-04T23:43:57.620Z,21.3
2023-04-04T23:45:40.975Z,21.3
2023-04-04T23:47:24.500Z,21.3
2023-04-04T23:49:07.888Z,21.3
2023-04-04T23:50:51.329Z,21.3
2023-04-04T23:52:34.697Z,21.3
2023-04-04T23:56:01.267Z,21.3
2023-04-04T23:57:44.548Z,21.3
2023-04-04T23:59:27.977Z,21.3
